sensor_id;sensor_type;location;lat;lon;timestamp;P1;durP1;ratioP1;P2;durP2;ratioP2
56051;SDS011;41919;42.648;23.384;2022-07-18T00:01:44;1.70;;;1.60;;
56051;SDS011;41919;42.648;23.384;2022-07-18T00:04:10;3.15;;;1.77;;
56051;SDS011;41919;42.648;23.384;2022-07-18T00:06:35;2.10;;;1.70;;
56051;SDS011;41919;42.648;23.384;2022-07-18T00:09:01;4.53;;;1.80;;
56051;SDS011;41919;42.648;23.384;2022-07-18T00:11:28;2.20;;;1.80;;
56051;SDS011;41919;42.648;23.384;2022-07-18T00:13:53;2.72;;;1.80;;
56051;SDS011;41919;42.648;23.384;2022-07-18T00:16:18;3.05;;;1.98;;
56051;SDS011;41919;42.648;23.384;2022-07-18T00:18:44;1.77;;;1.65;;
56051;SDS011;41919;42.648;23.384;2022-07-18T00:21:10;2.78;;;1.77;;
56051;SDS011;41919;42.648;23.384;2022-07-18T00:23:36;2.70;;;1.83;;
56051;SDS011;41919;42.648;23.384;2022-07-18T00:26:01;5.75;;;2.00;;
56051;SDS011;41919;42.648;23.384;2022-07-18T00:28:27;2.85;;;1.70;;
56051;SDS011;41919;42.648;23.384;2022-07-18T00:30:52;3.72;;;1.92;;
56051;SDS011;41919;42.648;23.384;2022-07-18T00:33:18;2.33;;;1.85;;
56051;SDS011;41919;42.648;23.384;2022-07-18T00:35:43;6.22;;;1.70;;
56051;SDS011;41919;42.648;23.384;2022-07-18T00:38:09;3.10;;;1.55;;
56051;SDS011;41919;42.648;23.384;2022-07-18T00:40:34;2.05;;;1.50;;
56051;SDS011;41919;42.648;23.384;2022-07-18T00:43:00;2.20;;;1.63;;
56051;SDS011;41919;42.648;23.384;2022-07-18T00:45:25;2.92;;;1.70;;
56051;SDS011;41919;42.648;23.384;2022-07-18T00:47:51;1.95;;;1.50;;
56051;SDS011;41919;42.648;23.384;2022-07-18T00:50:20;2.75;;;1.77;;
56051;SDS011;41919;42.648;23.384;2022-07-18T00:52:46;1.48;;;1.38;;
56051;SDS011;41919;42.648;23.384;2022-07-18T00:55:12;9.63;;;1.80;;
56051;SDS011;41919;42.648;23.384;2022-07-18T00:57:39;1.92;;;1.40;;
56051;SDS011;41919;42.648;23.384;2022-07-18T01:00:06;1.75;;;1.65;;
56051;SDS011;41919;42.648;23.384;2022-07-18T01:02:53;1.40;;;1.30;;
56051;SDS011;41919;42.648;23.384;2022-07-18T01:05:19;1.30;;;1.20;;
56051;SDS011;41919;42.648;23.384;2022-07-18T01:07:44;2.72;;;1.50;;
56051;SDS011;41919;42.648;23.384;2022-07-18T01:10:10;1.95;;;1.60;;
56051;SDS011;41919;42.648;23.384;2022-07-18T01:12:36;1.48;;;1.38;;
56051;SDS011;41919;42.648;23.384;2022-07-18T01:15:02;1.90;;;1.50;;
56051;SDS011;41919;42.648;23.384;2022-07-18T01:17:29;2.08;;;1.35;;
56051;SDS011;41919;42.648;23.384;2022-07-18T01:19:54;6.13;;;1.95;;
56051;SDS011;41919;42.648;23.384;2022-07-18T01:22:20;5.13;;;1.85;;
56051;SDS011;41919;42.648;23.384;2022-07-18T01:24:46;2.00;;;1.50;;
56051;SDS011;41919;42.648;23.384;2022-07-18T01:27:15;3.25;;;1.40;;
56051;SDS011;41919;42.648;23.384;2022-07-18T01:29:43;1.65;;;1.30;;
56051;SDS011;41919;42.648;23.384;2022-07-18T01:32:10;2.38;;;1.40;;
56051;SDS011;41919;42.648;23.384;2022-07-18T01:34:36;1.60;;;1.50;;
56051;SDS011;41919;42.648;23.384;2022-07-18T01:37:03;3.05;;;1.60;;
56051;SDS011;41919;42.648;23.384;2022-07-18T01:39:29;1.90;;;1.38;;
56051;SDS011;41919;42.648;23.384;2022-07-18T01:42:02;3.15;;;1.40;;
56051;SDS011;41919;42.648;23.384;2022-07-18T01:44:30;1.92;;;1.50;;
56051;SDS011;41919;42.648;23.384;2022-07-18T01:46:57;1.25;;;1.15;;
56051;SDS011;41919;42.648;23.384;2022-07-18T01:49:23;2.88;;;1.45;;
56051;SDS011;41919;42.648;23.384;2022-07-18T01:51:51;1.15;;;1.05;;
56051;SDS011;41919;42.648;23.384;2022-07-18T01:54:22;1.42;;;1.30;;
56051;SDS011;41919;42.648;23.384;2022-07-18T01:56:48;1.55;;;1.45;;
56051;SDS011;41919;42.648;23.384;2022-07-18T01:59:14;2.22;;;1.40;;
56051;SDS011;41919;42.648;23.384;2022-07-18T02:01:39;2.72;;;1.00;;
56051;SDS011;41919;42.648;23.384;2022-07-18T02:04:05;1.50;;;1.40;;
56051;SDS011;41919;42.648;23.384;2022-07-18T02:06:30;2.00;;;1.50;;
56051;SDS011;41919;42.648;23.384;2022-07-18T02:08:56;1.58;;;1.48;;
56051;SDS011;41919;42.648;23.384;2022-07-18T02:11:21;1.52;;;1.42;;
56051;SDS011;41919;42.648;23.384;2022-07-18T02:13:47;3.35;;;1.55;;
56051;SDS011;41919;42.648;23.384;2022-07-18T02:16:13;1.95;;;1.23;;
56051;SDS011;41919;42.648;23.384;2022-07-18T02:18:39;1.48;;;1.38;;
56051;SDS011;41919;42.648;23.384;2022-07-18T02:21:04;2.35;;;1.40;;
56051;SDS011;41919;42.648;23.384;2022-07-18T02:23:30;1.83;;;1.60;;
56051;SDS011;41919;42.648;23.384;2022-07-18T02:25:55;3.72;;;1.25;;
56051;SDS011;41919;42.648;23.384;2022-07-18T02:28:21;1.23;;;1.13;;
56051;SDS011;41919;42.648;23.384;2022-07-18T02:30:48;2.25;;;1.50;;
56051;SDS011;41919;42.648;23.384;2022-07-18T02:33:14;1.63;;;1.40;;
56051;SDS011;41919;42.648;23.384;2022-07-18T02:35:40;2.03;;;1.50;;
56051;SDS011;41919;42.648;23.384;2022-07-18T02:38:06;1.45;;;1.30;;
56051;SDS011;41919;42.648;23.384;2022-07-18T02:40:32;1.63;;;1.23;;
56051;SDS011;41919;42.648;23.384;2022-07-18T02:42:57;1.58;;;1.48;;
56051;SDS011;41919;42.648;23.384;2022-07-18T02:45:23;1.40;;;1.30;;
56051;SDS011;41919;42.648;23.384;2022-07-18T02:47:48;2.08;;;1.42;;
56051;SDS011;41919;42.648;23.384;2022-07-18T02:50:13;1.60;;;1.23;;
56051;SDS011;41919;42.648;23.384;2022-07-18T02:52:39;1.58;;;1.48;;
56051;SDS011;41919;42.648;23.384;2022-07-18T02:55:06;5.50;;;1.55;;
56051;SDS011;41919;42.648;23.384;2022-07-18T02:57:33;1.42;;;1.30;;
56051;SDS011;41919;42.648;23.384;2022-07-18T02:59:58;1.27;;;1.17;;
56051;SDS011;41919;42.648;23.384;2022-07-18T03:02:23;1.85;;;1.25;;
56051;SDS011;41919;42.648;23.384;2022-07-18T03:04:50;1.58;;;1.40;;
56051;SDS011;41919;42.648;23.384;2022-07-18T03:07:15;1.60;;;1.40;;
56051;SDS011;41919;42.648;23.384;2022-07-18T03:09:41;1.67;;;1.48;;
56051;SDS011;41919;42.648;23.384;2022-07-18T03:12:07;2.83;;;1.77;;
56051;SDS011;41919;42.648;23.384;2022-07-18T03:14:32;3.17;;;1.67;;
56051;SDS011;41919;42.648;23.384;2022-07-18T03:16:58;1.83;;;1.55;;
56051;SDS011;41919;42.648;23.384;2022-07-18T03:19:23;6.13;;;2.72;;
56051;SDS011;41919;42.648;23.384;2022-07-18T03:21:49;2.28;;;1.10;;
56051;SDS011;41919;42.648;23.384;2022-07-18T03:24:14;3.67;;;1.33;;
56051;SDS011;41919;42.648;23.384;2022-07-18T03:26:40;1.30;;;1.20;;
56051;SDS011;41919;42.648;23.384;2022-07-18T03:29:06;4.47;;;1.45;;
56051;SDS011;41919;42.648;23.384;2022-07-18T03:31:31;2.47;;;1.55;;
56051;SDS011;41919;42.648;23.384;2022-07-18T03:33:57;2.42;;;1.20;;
56051;SDS011;41919;42.648;23.384;2022-07-18T03:36:22;1.38;;;1.27;;
56051;SDS011;41919;42.648;23.384;2022-07-18T03:38:48;2.30;;;1.13;;
56051;SDS011;41919;42.648;23.384;2022-07-18T03:41:13;1.70;;;1.60;;
56051;SDS011;41919;42.648;23.384;2022-07-18T03:43:39;2.25;;;1.10;;
56051;SDS011;41919;42.648;23.384;2022-07-18T03:46:05;1.73;;;1.10;;
56051;SDS011;41919;42.648;23.384;2022-07-18T03:48:31;1.20;;;1.10;;
56051;SDS011;41919;42.648;23.384;2022-07-18T03:50:57;1.30;;;0.95;;
56051;SDS011;41919;42.648;23.384;2022-07-18T03:53:23;2.15;;;1.55;;
56051;SDS011;41919;42.648;23.384;2022-07-18T03:55:48;4.53;;;1.13;;
56051;SDS011;41919;42.648;23.384;2022-07-18T03:58:14;1.25;;;1.00;;
56051;SDS011;41919;42.648;23.384;2022-07-18T04:00:39;1.15;;;1.05;;
56051;SDS011;41919;42.648;23.384;2022-07-18T04:03:05;2.25;;;1.02;;
56051;SDS011;41919;42.648;23.384;2022-07-18T04:05:30;1.77;;;1.30;;
56051;SDS011;41919;42.648;23.384;2022-07-18T04:07:56;2.35;;;1.20;;
56051;SDS011;41919;42.648;23.384;2022-07-18T04:10:21;1.15;;;1.10;;
56051;SDS011;41919;42.648;23.384;2022-07-18T04:12:47;1.20;;;1.20;;
56051;SDS011;41919;42.648;23.384;2022-07-18T04:15:15;2.30;;;1.10;;
56051;SDS011;41919;42.648;23.384;2022-07-18T04:17:41;1.90;;;1.20;;
56051;SDS011;41919;42.648;23.384;2022-07-18T04:20:06;1.30;;;1.20;;
56051;SDS011;41919;42.648;23.384;2022-07-18T04:22:43;2.63;;;1.17;;
56051;SDS011;41919;42.648;23.384;2022-07-18T04:25:16;2.25;;;1.02;;
56051;SDS011;41919;42.648;23.384;2022-07-18T04:27:42;3.10;;;1.33;;
56051;SDS011;41919;42.648;23.384;2022-07-18T04:30:08;1.50;;;1.40;;
56051;SDS011;41919;42.648;23.384;2022-07-18T04:32:33;1.98;;;1.25;;
56051;SDS011;41919;42.648;23.384;2022-07-18T04:34:59;1.88;;;1.40;;
56051;SDS011;41919;42.648;23.384;2022-07-18T04:37:24;2.75;;;1.30;;
56051;SDS011;41919;42.648;23.384;2022-07-18T04:39:50;2.63;;;1.40;;
56051;SDS011;41919;42.648;23.384;2022-07-18T04:42:15;2.97;;;1.40;;
56051;SDS011;41919;42.648;23.384;2022-07-18T04:44:41;2.83;;;1.45;;
56051;SDS011;41919;42.648;23.384;2022-07-18T04:47:06;2.35;;;1.55;;
56051;SDS011;41919;42.648;23.384;2022-07-18T04:49:31;5.18;;;2.00;;
56051;SDS011;41919;42.648;23.384;2022-07-18T04:51:57;2.10;;;1.45;;
56051;SDS011;41919;42.648;23.384;2022-07-18T04:54:22;3.25;;;1.67;;
56051;SDS011;41919;42.648;23.384;2022-07-18T04:56:48;4.25;;;1.40;;
56051;SDS011;41919;42.648;23.384;2022-07-18T04:59:14;1.65;;;1.17;;
56051;SDS011;41919;42.648;23.384;2022-07-18T05:01:40;4.50;;;1.10;;
56051;SDS011;41919;42.648;23.384;2022-07-18T05:04:05;4.00;;;1.30;;
56051;SDS011;41919;42.648;23.384;2022-07-18T05:06:31;1.30;;;1.20;;
56051;SDS011;41919;42.648;23.384;2022-07-18T05:08:56;1.67;;;1.27;;
56051;SDS011;41919;42.648;23.384;2022-07-18T05:11:22;1.42;;;1.30;;
56051;SDS011;41919;42.648;23.384;2022-07-18T05:13:47;1.25;;;1.15;;
56051;SDS011;41919;42.648;23.384;2022-07-18T05:16:13;1.85;;;1.30;;
56051;SDS011;41919;42.648;23.384;2022-07-18T05:18:38;2.15;;;1.42;;
56051;SDS011;41919;42.648;23.384;2022-07-18T05:21:03;3.53;;;1.30;;
56051;SDS011;41919;42.648;23.384;2022-07-18T05:23:29;3.50;;;1.30;;
56051;SDS011;41919;42.648;23.384;2022-07-18T05:25:54;3.63;;;1.40;;
56051;SDS011;41919;42.648;23.384;2022-07-18T05:28:20;2.38;;;1.48;;
56051;SDS011;41919;42.648;23.384;2022-07-18T05:30:45;2.15;;;1.38;;
56051;SDS011;41919;42.648;23.384;2022-07-18T05:33:11;1.70;;;1.27;;
56051;SDS011;41919;42.648;23.384;2022-07-18T05:35:36;1.38;;;1.23;;
56051;SDS011;41919;42.648;23.384;2022-07-18T05:38:02;3.63;;;1.60;;
56051;SDS011;41919;42.648;23.384;2022-07-18T05:40:27;3.67;;;1.45;;
56051;SDS011;41919;42.648;23.384;2022-07-18T05:42:53;4.32;;;2.03;;
56051;SDS011;41919;42.648;23.384;2022-07-18T05:45:18;3.45;;;1.75;;
56051;SDS011;41919;42.648;23.384;2022-07-18T05:47:44;2.53;;;2.17;;
56051;SDS011;41919;42.648;23.384;2022-07-18T05:50:09;1.95;;;1.70;;
56051;SDS011;41919;42.648;23.384;2022-07-18T05:52:35;6.47;;;2.08;;
56051;SDS011;41919;42.648;23.384;2022-07-18T05:55:00;5.55;;;2.70;;
56051;SDS011;41919;42.648;23.384;2022-07-18T05:57:26;5.13;;;2.60;;
56051;SDS011;41919;42.648;23.384;2022-07-18T05:59:52;8.02;;;2.83;;
56051;SDS011;41919;42.648;23.384;2022-07-18T06:02:17;9.32;;;4.03;;
56051;SDS011;41919;42.648;23.384;2022-07-18T06:04:42;4.63;;;3.35;;
56051;SDS011;41919;42.648;23.384;2022-07-18T06:07:08;3.05;;;1.80;;
56051;SDS011;41919;42.648;23.384;2022-07-18T06:09:33;6.07;;;1.80;;
56051;SDS011;41919;42.648;23.384;2022-07-18T06:11:59;5.10;;;1.50;;
56051;SDS011;41919;42.648;23.384;2022-07-18T06:14:28;3.05;;;2.05;;
56051;SDS011;41919;42.648;23.384;2022-07-18T06:16:54;6.60;;;1.92;;
56051;SDS011;41919;42.648;23.384;2022-07-18T06:19:19;4.32;;;2.17;;
56051;SDS011;41919;42.648;23.384;2022-07-18T06:21:45;3.85;;;1.92;;
56051;SDS011;41919;42.648;23.384;2022-07-18T06:24:11;5.60;;;1.90;;
56051;SDS011;41919;42.648;23.384;2022-07-18T06:26:36;4.30;;;1.80;;
56051;SDS011;41919;42.648;23.384;2022-07-18T06:29:02;9.57;;;1.85;;
56051;SDS011;41919;42.648;23.384;2022-07-18T06:31:27;4.93;;;2.05;;
56051;SDS011;41919;42.648;23.384;2022-07-18T06:33:53;1.55;;;1.40;;
56051;SDS011;41919;42.648;23.384;2022-07-18T06:36:19;2.70;;;1.52;;
56051;SDS011;41919;42.648;23.384;2022-07-18T06:38:46;2.47;;;1.60;;
56051;SDS011;41919;42.648;23.384;2022-07-18T06:41:12;3.85;;;1.48;;
56051;SDS011;41919;42.648;23.384;2022-07-18T06:43:38;2.92;;;1.27;;
56051;SDS011;41919;42.648;23.384;2022-07-18T06:46:03;1.60;;;1.17;;
56051;SDS011;41919;42.648;23.384;2022-07-18T06:48:29;1.17;;;1.08;;
56051;SDS011;41919;42.648;23.384;2022-07-18T06:50:58;2.92;;;1.00;;
56051;SDS011;41919;42.648;23.384;2022-07-18T06:53:25;1.77;;;1.20;;
56051;SDS011;41919;42.648;23.384;2022-07-18T06:55:50;2.47;;;1.30;;
56051;SDS011;41919;42.648;23.384;2022-07-18T06:58:16;1.08;;;1.08;;
56051;SDS011;41919;42.648;23.384;2022-07-18T07:00:41;2.88;;;1.40;;
56051;SDS011;41919;42.648;23.384;2022-07-18T07:03:07;1.50;;;1.30;;
56051;SDS011;41919;42.648;23.384;2022-07-18T07:05:32;3.90;;;1.10;;
56051;SDS011;41919;42.648;23.384;2022-07-18T07:07:58;2.30;;;1.10;;
56051;SDS011;41919;42.648;23.384;2022-07-18T07:10:23;1.67;;;1.10;;
56051;SDS011;41919;42.648;23.384;2022-07-18T07:12:49;2.22;;;1.10;;
56051;SDS011;41919;42.648;23.384;2022-07-18T07:15:17;4.32;;;1.20;;
56051;SDS011;41919;42.648;23.384;2022-07-18T07:17:44;1.73;;;1.10;;
56051;SDS011;41919;42.648;23.384;2022-07-18T07:20:11;4.07;;;1.58;;
56051;SDS011;41919;42.648;23.384;2022-07-18T07:22:41;2.75;;;1.27;;
56051;SDS011;41919;42.648;23.384;2022-07-18T07:25:08;3.30;;;1.10;;
56051;SDS011;41919;42.648;23.384;2022-07-18T07:27:33;3.58;;;1.17;;
56051;SDS011;41919;42.648;23.384;2022-07-18T07:29:59;1.50;;;1.27;;
56051;SDS011;41919;42.648;23.384;2022-07-18T07:32:24;1.90;;;1.20;;
56051;SDS011;41919;42.648;23.384;2022-07-18T07:34:50;2.65;;;1.00;;
56051;SDS011;41919;42.648;23.384;2022-07-18T07:37:15;1.75;;;1.10;;
56051;SDS011;41919;42.648;23.384;2022-07-18T07:39:40;2.90;;;1.30;;
56051;SDS011;41919;42.648;23.384;2022-07-18T07:42:06;1.35;;;1.10;;
56051;SDS011;41919;42.648;23.384;2022-07-18T07:44:31;1.00;;;1.00;;
56051;SDS011;41919;42.648;23.384;2022-07-18T07:46:57;2.65;;;1.20;;
56051;SDS011;41919;42.648;23.384;2022-07-18T07:49:24;5.30;;;1.30;;
56051;SDS011;41919;42.648;23.384;2022-07-18T07:51:50;3.55;;;1.35;;
56051;SDS011;41919;42.648;23.384;2022-07-18T07:54:15;3.92;;;1.30;;
56051;SDS011;41919;42.648;23.384;2022-07-18T07:56:40;1.55;;;1.08;;
56051;SDS011;41919;42.648;23.384;2022-07-18T07:59:06;2.40;;;1.00;;
56051;SDS011;41919;42.648;23.384;2022-07-18T08:01:31;2.00;;;1.10;;
56051;SDS011;41919;42.648;23.384;2022-07-18T08:03:56;3.47;;;1.23;;
56051;SDS011;41919;42.648;23.384;2022-07-18T08:06:22;3.72;;;1.00;;
56051;SDS011;41919;42.648;23.384;2022-07-18T08:08:48;2.08;;;1.10;;
56051;SDS011;41919;42.648;23.384;2022-07-18T08:11:14;1.70;;;1.10;;
56051;SDS011;41919;42.648;23.384;2022-07-18T08:13:40;5.60;;;1.40;;
56051;SDS011;41919;42.648;23.384;2022-07-18T08:16:05;2.17;;;1.10;;
56051;SDS011;41919;42.648;23.384;2022-07-18T08:18:31;1.33;;;1.10;;
56051;SDS011;41919;42.648;23.384;2022-07-18T08:20:56;2.60;;;1.00;;
56051;SDS011;41919;42.648;23.384;2022-07-18T08:23:22;2.05;;;1.10;;
56051;SDS011;41919;42.648;23.384;2022-07-18T08:25:47;1.95;;;1.02;;
56051;SDS011;41919;42.648;23.384;2022-07-18T08:28:13;2.25;;;1.00;;
56051;SDS011;41919;42.648;23.384;2022-07-18T08:30:39;0.90;;;0.90;;
56051;SDS011;41919;42.648;23.384;2022-07-18T08:33:05;2.38;;;1.20;;
56051;SDS011;41919;42.648;23.384;2022-07-18T08:35:32;3.03;;;1.48;;
56051;SDS011;41919;42.648;23.384;2022-07-18T08:37:58;1.50;;;0.90;;
56051;SDS011;41919;42.648;23.384;2022-07-18T08:40:24;2.15;;;1.10;;
56051;SDS011;41919;42.648;23.384;2022-07-18T08:42:51;2.33;;;1.08;;
56051;SDS011;41919;42.648;23.384;2022-07-18T08:45:21;2.08;;;0.98;;
56051;SDS011;41919;42.648;23.384;2022-07-18T08:47:48;2.10;;;1.05;;
56051;SDS011;41919;42.648;23.384;2022-07-18T08:50:14;2.78;;;1.00;;
56051;SDS011;41919;42.648;23.384;2022-07-18T08:52:39;1.08;;;0.80;;
56051;SDS011;41919;42.648;23.384;2022-07-18T08:55:08;1.85;;;0.90;;
56051;SDS011;41919;42.648;23.384;2022-07-18T08:57:35;2.72;;;0.90;;
56051;SDS011;41919;42.648;23.384;2022-07-18T09:00:02;3.05;;;1.20;;
56051;SDS011;41919;42.648;23.384;2022-07-18T09:02:31;1.33;;;1.10;;
56051;SDS011;41919;42.648;23.384;2022-07-18T09:04:57;3.47;;;1.23;;
56051;SDS011;41919;42.648;23.384;2022-07-18T09:07:29;2.40;;;1.00;;
56051;SDS011;41919;42.648;23.384;2022-07-18T09:09:57;1.48;;;1.00;;
56051;SDS011;41919;42.648;23.384;2022-07-18T09:12:25;2.72;;;1.20;;
56051;SDS011;41919;42.648;23.384;2022-07-18T09:14:52;1.45;;;1.02;;
56051;SDS011;41919;42.648;23.384;2022-07-18T09:17:22;1.73;;;1.10;;
56051;SDS011;41919;42.648;23.384;2022-07-18T09:20:08;1.48;;;0.90;;
56051;SDS011;41919;42.648;23.384;2022-07-18T09:22:36;2.67;;;1.42;;
56051;SDS011;41919;42.648;23.384;2022-07-18T09:27:41;4.50;;;1.80;;
56051;SDS011;41919;42.648;23.384;2022-07-18T09:30:18;2.40;;;1.40;;
56051;SDS011;41919;42.648;23.384;2022-07-18T09:33:07;3.03;;;1.30;;
56051;SDS011;41919;42.648;23.384;2022-07-18T09:35:33;2.42;;;1.02;;
56051;SDS011;41919;42.648;23.384;2022-07-18T09:40:43;2.17;;;1.10;;
56051;SDS011;41919;42.648;23.384;2022-07-18T09:43:10;2.42;;;0.93;;
56051;SDS011;41919;42.648;23.384;2022-07-18T09:45:39;2.53;;;1.60;;
56051;SDS011;41919;42.648;23.384;2022-07-18T09:48:16;5.20;;;1.38;;
56051;SDS011;41919;42.648;23.384;2022-07-18T09:53:27;2.13;;;1.30;;
56051;SDS011;41919;42.648;23.384;2022-07-18T09:55:57;1.02;;;1.02;;
56051;SDS011;41919;42.648;23.384;2022-07-18T09:58:25;4.78;;;1.60;;
56051;SDS011;41919;42.648;23.384;2022-07-18T10:00:53;4.13;;;1.63;;
56051;SDS011;41919;42.648;23.384;2022-07-18T10:03:20;2.03;;;1.30;;
56051;SDS011;41919;42.648;23.384;2022-07-18T10:05:47;2.33;;;1.30;;
56051;SDS011;41919;42.648;23.384;2022-07-18T10:08:21;2.58;;;1.60;;
56051;SDS011;41919;42.648;23.384;2022-07-18T10:10:52;4.30;;;1.75;;
56051;SDS011;41919;42.648;23.384;2022-07-18T10:13:19;3.80;;;1.80;;
56051;SDS011;41919;42.648;23.384;2022-07-18T10:15:47;2.03;;;1.50;;
56051;SDS011;41919;42.648;23.384;2022-07-18T10:18:17;3.28;;;1.85;;
56051;SDS011;41919;42.648;23.384;2022-07-18T10:20:46;2.83;;;1.60;;
56051;SDS011;41919;42.648;23.384;2022-07-18T10:23:44;2.03;;;1.80;;
56051;SDS011;41919;42.648;23.384;2022-07-18T10:29:20;5.20;;;1.60;;
56051;SDS011;41919;42.648;23.384;2022-07-18T10:31:40;5.20;;;1.92;;
56051;SDS011;41919;42.648;23.384;2022-07-18T10:34:34;4.10;;;1.70;;
56051;SDS011;41919;42.648;23.384;2022-07-18T10:39:43;5.43;;;1.45;;
56051;SDS011;41919;42.648;23.384;2022-07-18T10:44:35;2.92;;;1.45;;
56051;SDS011;41919;42.648;23.384;2022-07-18T10:57:26;7.30;;;1.48;;
56051;SDS011;41919;42.648;23.384;2022-07-18T10:59:59;3.03;;;1.80;;
56051;SDS011;41919;42.648;23.384;2022-07-18T11:03:22;4.88;;;1.60;;
56051;SDS011;41919;42.648;23.384;2022-07-18T11:08:36;4.93;;;1.60;;
56051;SDS011;41919;42.648;23.384;2022-07-18T11:16:17;4.00;;;1.58;;
56051;SDS011;41919;42.648;23.384;2022-07-18T11:24:08;3.72;;;1.60;;
56051;SDS011;41919;42.648;23.384;2022-07-18T11:26:47;4.70;;;1.70;;
56051;SDS011;41919;42.648;23.384;2022-07-18T11:29:16;2.70;;;1.35;;
56051;SDS011;41919;42.648;23.384;2022-07-18T11:31:47;2.75;;;1.33;;
56051;SDS011;41919;42.648;23.384;2022-07-18T11:34:17;1.40;;;1.30;;
56051;SDS011;41919;42.648;23.384;2022-07-18T11:36:43;4.60;;;1.52;;
56051;SDS011;41919;42.648;23.384;2022-07-18T11:39:11;2.13;;;1.40;;
56051;SDS011;41919;42.648;23.384;2022-07-18T11:41:39;4.28;;;1.50;;
56051;SDS011;41919;42.648;23.384;2022-07-18T11:44:05;4.15;;;1.55;;
56051;SDS011;41919;42.648;23.384;2022-07-18T11:46:40;3.28;;;1.30;;
56051;SDS011;41919;42.648;23.384;2022-07-18T11:49:05;3.53;;;1.45;;
56051;SDS011;41919;42.648;23.384;2022-07-18T11:51:41;1.77;;;1.50;;
56051;SDS011;41919;42.648;23.384;2022-07-18T11:54:09;3.25;;;1.45;;
56051;SDS011;41919;42.648;23.384;2022-07-18T11:56:49;1.80;;;1.40;;
56051;SDS011;41919;42.648;23.384;2022-07-18T11:59:15;2.30;;;1.60;;
56051;SDS011;41919;42.648;23.384;2022-07-18T12:01:42;2.33;;;1.50;;
56051;SDS011;41919;42.648;23.384;2022-07-18T12:04:14;1.60;;;1.50;;
56051;SDS011;41919;42.648;23.384;2022-07-18T12:06:43;3.63;;;1.35;;
56051;SDS011;41919;42.648;23.384;2022-07-18T12:09:08;3.30;;;1.50;;
56051;SDS011;41919;42.648;23.384;2022-07-18T12:11:37;2.95;;;1.25;;
56051;SDS011;41919;42.648;23.384;2022-07-18T12:16:33;1.48;;;1.20;;
56051;SDS011;41919;42.648;23.384;2022-07-18T12:19:02;2.65;;;1.65;;
56051;SDS011;41919;42.648;23.384;2022-07-18T12:21:39;1.48;;;1.20;;
56051;SDS011;41919;42.648;23.384;2022-07-18T12:24:27;2.08;;;1.40;;
56051;SDS011;41919;42.648;23.384;2022-07-18T12:27:13;3.53;;;1.65;;
56051;SDS011;41919;42.648;23.384;2022-07-18T12:32:39;5.57;;;1.50;;
56051;SDS011;41919;42.648;23.384;2022-07-18T12:35:34;4.93;;;1.55;;
56051;SDS011;41919;42.648;23.384;2022-07-18T12:43:31;2.63;;;1.55;;
56051;SDS011;41919;42.648;23.384;2022-07-18T12:46:06;6.70;;;1.40;;
56051;SDS011;41919;42.648;23.384;2022-07-18T12:48:33;3.35;;;1.40;;
56051;SDS011;41919;42.648;23.384;2022-07-18T12:53:31;3.42;;;1.73;;
56051;SDS011;41919;42.648;23.384;2022-07-18T12:55:59;3.90;;;1.90;;
56051;SDS011;41919;42.648;23.384;2022-07-18T12:58:25;4.15;;;1.80;;
56051;SDS011;41919;42.648;23.384;2022-07-18T13:00:50;4.40;;;2.00;;
56051;SDS011;41919;42.648;23.384;2022-07-18T13:03:16;5.95;;;1.80;;
56051;SDS011;41919;42.648;23.384;2022-07-18T13:05:42;3.53;;;1.40;;
56051;SDS011;41919;42.648;23.384;2022-07-18T13:08:08;7.78;;;2.25;;
56051;SDS011;41919;42.648;23.384;2022-07-18T13:10:35;3.58;;;1.80;;
56051;SDS011;41919;42.648;23.384;2022-07-18T13:13:03;4.88;;;1.85;;
56051;SDS011;41919;42.648;23.384;2022-07-18T13:15:30;6.97;;;1.88;;
56051;SDS011;41919;42.648;23.384;2022-07-18T13:17:56;1.58;;;1.48;;
56051;SDS011;41919;42.648;23.384;2022-07-18T13:20:22;1.70;;;1.60;;
56051;SDS011;41919;42.648;23.384;2022-07-18T13:22:48;2.28;;;1.80;;
56051;SDS011;41919;42.648;23.384;2022-07-18T13:25:14;4.75;;;1.70;;
56051;SDS011;41919;42.648;23.384;2022-07-18T13:27:40;2.10;;;1.67;;
56051;SDS011;41919;42.648;23.384;2022-07-18T13:30:09;2.85;;;1.75;;
56051;SDS011;41919;42.648;23.384;2022-07-18T13:32:35;5.30;;;1.60;;
56051;SDS011;41919;42.648;23.384;2022-07-18T13:35:01;2.85;;;1.92;;
56051;SDS011;41919;42.648;23.384;2022-07-18T13:37:27;4.25;;;2.00;;
56051;SDS011;41919;42.648;23.384;2022-07-18T13:39:53;2.80;;;1.63;;
56051;SDS011;41919;42.648;23.384;2022-07-18T13:42:18;8.32;;;2.00;;
56051;SDS011;41919;42.648;23.384;2022-07-18T13:44:44;5.05;;;1.77;;
56051;SDS011;41919;42.648;23.384;2022-07-18T13:47:12;2.13;;;1.70;;
56051;SDS011;41919;42.648;23.384;2022-07-18T13:49:39;2.53;;;1.83;;
56051;SDS011;41919;42.648;23.384;2022-07-18T13:52:04;4.32;;;1.70;;
56051;SDS011;41919;42.648;23.384;2022-07-18T13:54:30;5.53;;;2.50;;
56051;SDS011;41919;42.648;23.384;2022-07-18T13:56:55;2.10;;;1.67;;
56051;SDS011;41919;42.648;23.384;2022-07-18T13:59:21;4.20;;;1.80;;
56051;SDS011;41919;42.648;23.384;2022-07-18T14:01:46;3.33;;;1.80;;
56051;SDS011;41919;42.648;23.384;2022-07-18T14:04:11;2.65;;;2.00;;
56051;SDS011;41919;42.648;23.384;2022-07-18T14:06:37;2.25;;;2.05;;
56051;SDS011;41919;42.648;23.384;2022-07-18T14:09:03;2.67;;;2.00;;
56051;SDS011;41919;42.648;23.384;2022-07-18T14:11:29;7.10;;;1.90;;
56051;SDS011;41919;42.648;23.384;2022-07-18T14:13:57;2.08;;;1.80;;
56051;SDS011;41919;42.648;23.384;2022-07-18T14:16:23;6.53;;;2.00;;
56051;SDS011;41919;42.648;23.384;2022-07-18T14:18:49;5.93;;;1.92;;
56051;SDS011;41919;42.648;23.384;2022-07-18T14:21:15;2.35;;;2.08;;
56051;SDS011;41919;42.648;23.384;2022-07-18T14:23:40;3.78;;;2.03;;
56051;SDS011;41919;42.648;23.384;2022-07-18T14:26:06;3.70;;;1.83;;
56051;SDS011;41919;42.648;23.384;2022-07-18T14:28:31;4.38;;;2.20;;
56051;SDS011;41919;42.648;23.384;2022-07-18T14:30:56;2.30;;;1.92;;
56051;SDS011;41919;42.648;23.384;2022-07-18T14:33:22;4.22;;;2.38;;
56051;SDS011;41919;42.648;23.384;2022-07-18T14:35:47;6.38;;;2.13;;
56051;SDS011;41919;42.648;23.384;2022-07-18T14:38:13;3.88;;;1.95;;
56051;SDS011;41919;42.648;23.384;2022-07-18T14:40:38;2.58;;;2.03;;
56051;SDS011;41919;42.648;23.384;2022-07-18T14:43:03;3.17;;;1.83;;
56051;SDS011;41919;42.648;23.384;2022-07-18T14:45:29;1.92;;;1.83;;
56051;SDS011;41919;42.648;23.384;2022-07-18T14:47:54;3.53;;;2.05;;
56051;SDS011;41919;42.648;23.384;2022-07-18T14:50:20;5.30;;;3.85;;
56051;SDS011;41919;42.648;23.384;2022-07-18T14:52:45;3.40;;;1.92;;
56051;SDS011;41919;42.648;23.384;2022-07-18T14:55:11;2.15;;;1.95;;
56051;SDS011;41919;42.648;23.384;2022-07-18T14:57:36;2.97;;;2.00;;
56051;SDS011;41919;42.648;23.384;2022-07-18T15:00:03;5.22;;;2.42;;
56051;SDS011;41919;42.648;23.384;2022-07-18T15:02:30;3.58;;;2.25;;
56051;SDS011;41919;42.648;23.384;2022-07-18T15:04:56;4.45;;;1.95;;
56051;SDS011;41919;42.648;23.384;2022-07-18T15:07:21;3.33;;;1.85;;
56051;SDS011;41919;42.648;23.384;2022-07-18T15:09:47;3.47;;;2.10;;
56051;SDS011;41919;42.648;23.384;2022-07-18T15:12:12;4.25;;;1.95;;
56051;SDS011;41919;42.648;23.384;2022-07-18T15:14:40;4.80;;;2.60;;
56051;SDS011;41919;42.648;23.384;2022-07-18T15:17:05;2.63;;;1.90;;
56051;SDS011;41919;42.648;23.384;2022-07-18T15:19:31;3.50;;;2.03;;
56051;SDS011;41919;42.648;23.384;2022-07-18T15:21:56;2.90;;;2.20;;
56051;SDS011;41919;42.648;23.384;2022-07-18T15:24:22;2.92;;;2.08;;
56051;SDS011;41919;42.648;23.384;2022-07-18T15:26:47;2.92;;;2.00;;